sensor_id;sensor_type;location;lat;lon;timestamp;temperature;humidity
46091;DHT22;31826;53.572;10.170;2023-11-19T00:00:46;5.00;99.90
46091;DHT22;31826;53.572;10.170;2023-11-19T00:03:12;5.00;99.90
46091;DHT22;31826;53.572;10.170;2023-11-19T00:05:39;5.00;99.90
46091;DHT22;31826;53.572;10.170;2023-11-19T00:08:05;5.00;99.90
46091;DHT22;31826;53.572;10.170;2023-11-19T00:10:32;5.10;99.90
46091;DHT22;31826;53.572;10.170;2023-11-19T00:12:57;5.00;99.90
46091;DHT22;31826;53.572;10.170;2023-11-19T00:15:23;5.10;99.90
46091;DHT22;31826;53.572;10.170;2023-11-19T00:17:49;5.00;99.90
46091;DHT22;31826;53.572;10.170;2023-11-19T00:20:19;5.00;99.90
46091;DHT22;31826;53.572;10.170;2023-11-19T00:22:47;5.00;99.90
46091;DHT22;31826;53.572;10.170;2023-11-19T00:25:23;5.10;99.90
46091;DHT22;31826;53.572;10.170;2023-11-19T00:27:48;5.10;99.90
46091;DHT22;31826;53.572;10.170;2023-11-19T00:30:14;5.10;99.90
46091;DHT22;31826;53.572;10.170;2023-11-19T00:32:41;5.00;99.90
46091;DHT22;31826;53.572;10.170;2023-11-19T00:35:07;5.00;99.90
46091;DHT22;31826;53.572;10.170;2023-11-19T00:37:33;5.00;99.90
46091;DHT22;31826;53.572;10.170;2023-11-19T00:39:59;5.00;99.90
46091;DHT22;31826;53.572;10.170;2023-11-19T00:42:25;5.10;99.90
46091;DHT22;31826;53.572;10.170;2023-11-19T00:44:51;5.10;99.90
46091;DHT22;31826;53.572;10.170;2023-11-19T00:47:17;5.10;99.90
46091;DHT22;31826;53.572;10.170;2023-11-19T00:49:48;5.10;99.90
46091;DHT22;31826;53.572;10.170;2023-11-19T00:52:18;5.10;99.90
46091;DHT22;31826;53.572;10.170;2023-11-19T00:54:44;5.10;99.90
46091;DHT22;31826;53.572;10.170;2023-11-19T00:57:10;5.10;99.90
46091;DHT22;31826;53.572;10.170;2023-11-19T00:59:36;5.10;99.90
46091;DHT22;31826;53.572;10.170;2023-11-19T01:02:02;5.10;99.90
46091;DHT22;31826;53.572;10.170;2023-11-19T01:04:34;5.10;99.90
46091;DHT22;31826;53.572;10.170;2023-11-19T01:07:02;5.10;99.90
46091;DHT22;31826;53.572;10.170;2023-11-19T01:09:29;5.10;99.90
46091;DHT22;31826;53.572;10.170;2023-11-19T01:11:57;5.10;99.90
46091;DHT22;31826;53.572;10.170;2023-11-19T01:14:23;5.10;99.90
46091;DHT22;31826;53.572;10.170;2023-11-19T01:16:49;5.10;99.90
46091;DHT22;31826;53.572;10.170;2023-11-19T01:19:15;5.10;99.90
46091;DHT22;31826;53.572;10.170;2023-11-19T01:21:41;5.20;99.90
46091;DHT22;31826;53.572;10.170;2023-11-19T01:24:07;5.10;99.90
46091;DHT22;31826;53.572;10.170;2023-11-19T01:26:35;5.10;99.90
46091;DHT22;31826;53.572;10.170;2023-11-19T01:29:00;5.20;99.90
46091;DHT22;31826;53.572;10.170;2023-11-19T01:31:26;5.10;99.90
46091;DHT22;31826;53.572;10.170;2023-11-19T01:33:52;5.10;99.90
46091;DHT22;31826;53.572;10.170;2023-11-19T01:36:18;5.10;99.90
46091;DHT22;31826;53.572;10.170;2023-11-19T01:38:43;5.20;99.90
46091;DHT22;31826;53.572;10.170;2023-11-19T01:41:10;5.20;99.90
46091;DHT22;31826;53.572;10.170;2023-11-19T01:43:37;5.20;99.90
46091;DHT22;31826;53.572;10.170;2023-11-19T01:46:05;5.20;99.90
46091;DHT22;31826;53.572;10.170;2023-11-19T01:48:33;5.20;99.90
46091;DHT22;31826;53.572;10.170;2023-11-19T01:51:00;5.20;99.90
46091;DHT22;31826;53.572;10.170;2023-11-19T01:53:27;5.20;99.90
46091;DHT22;31826;53.572;10.170;2023-11-19T01:55:53;5.20;99.90
46091;DHT22;31826;53.572;10.170;2023-11-19T01:58:19;5.20;99.90
46091;DHT22;31826;53.572;10.170;2023-11-19T02:00:45;5.20;99.90
46091;DHT22;31826;53.572;10.170;2023-11-19T02:03:11;5.20;99.90
46091;DHT22;31826;53.572;10.170;2023-11-19T02:05:38;5.20;99.90
46091;DHT22;31826;53.572;10.170;2023-11-19T02:08:05;5.20;99.90
46091;DHT22;31826;53.572;10.170;2023-11-19T02:10:31;5.20;99.90
46091;DHT22;31826;53.572;10.170;2023-11-19T02:13:00;5.20;99.90
46091;DHT22;31826;53.572;10.170;2023-11-19T02:15:26;5.20;99.90
46091;DHT22;31826;53.572;10.170;2023-11-19T02:17:52;5.20;99.90
46091;DHT22;31826;53.572;10.170;2023-11-19T02:20:18;5.20;99.90
46091;DHT22;31826;53.572;10.170;2023-11-19T02:22:48;5.20;99.90
46091;DHT22;31826;53.572;10.170;2023-11-19T02:25:28;5.30;99.90
46091;DHT22;31826;53.572;10.170;2023-11-19T02:28:02;5.20;99.90
46091;DHT22;31826;53.572;10.170;2023-11-19T02:30:29;5.20;99.90
46091;DHT22;31826;53.572;10.170;2023-11-19T02:32:58;5.20;99.90
46091;DHT22;31826;53.572;10.170;2023-11-19T02:35:26;5.20;99.90
46091;DHT22;31826;53.572;10.170;2023-11-19T02:37:52;5.30;99.90
46091;DHT22;31826;53.572;10.170;2023-11-19T02:40:18;5.20;99.90
46091;DHT22;31826;53.572;10.170;2023-11-19T02:42:44;5.20;99.90
46091;DHT22;31826;53.572;10.170;2023-11-19T02:45:10;5.30;99.90
46091;DHT22;31826;53.572;10.170;2023-11-19T02:47:43;5.30;99.90
46091;DHT22;31826;53.572;10.170;2023-11-19T02:50:10;5.30;99.90
46091;DHT22;31826;53.572;10.170;2023-11-19T02:52:42;5.30;99.90
46091;DHT22;31826;53.572;10.170;2023-11-19T02:55:12;5.20;99.90
46091;DHT22;31826;53.572;10.170;2023-11-19T02:57:41;5.30;99.90
46091;DHT22;31826;53.572;10.170;2023-11-19T03:00:23;5.30;99.90
46091;DHT22;31826;53.572;10.170;2023-11-19T03:03:11;5.30;99.90
46091;DHT22;31826;53.572;10.170;2023-11-19T03:05:49;5.30;99.90
46091;DHT22;31826;53.572;10.170;2023-11-19T03:08:17;5.30;99.90
46091;DHT22;31826;53.572;10.170;2023-11-19T03:10:43;5.40;99.90
46091;DHT22;31826;53.572;10.170;2023-11-19T03:13:13;5.40;99.90
46091;DHT22;31826;53.572;10.170;2023-11-19T03:15:42;5.40;99.90
46091;DHT22;31826;53.572;10.170;2023-11-19T03:18:08;5.40;99.90
46091;DHT22;31826;53.572;10.170;2023-11-19T03:20:34;5.40;99.90
46091;DHT22;31826;53.572;10.170;2023-11-19T03:22:59;5.40;99.90
46091;DHT22;31826;53.572;10.170;2023-11-19T03:25:28;5.40;99.90
46091;DHT22;31826;53.572;10.170;2023-11-19T03:28:02;5.40;99.90
46091;DHT22;31826;53.572;10.170;2023-11-19T03:30:29;5.50;99.90
46091;DHT22;31826;53.572;10.170;2023-11-19T03:32:56;5.50;99.90
46091;DHT22;31826;53.572;10.170;2023-11-19T03:35:23;5.60;99.90
46091;DHT22;31826;53.572;10.170;2023-11-19T03:37:49;5.60;99.90
46091;DHT22;31826;53.572;10.170;2023-11-19T03:40:15;5.60;99.90
46091;DHT22;31826;53.572;10.170;2023-11-19T03:42:41;5.60;99.90
46091;DHT22;31826;53.572;10.170;2023-11-19T03:45:07;5.70;99.90
46091;DHT22;31826;53.572;10.170;2023-11-19T03:47:36;5.60;99.90
46091;DHT22;31826;53.572;10.170;2023-11-19T03:50:03;5.70;99.90
46091;DHT22;31826;53.572;10.170;2023-11-19T03:52:29;5.70;99.90
46091;DHT22;31826;53.572;10.170;2023-11-19T03:54:55;5.70;99.90
46091;DHT22;31826;53.572;10.170;2023-11-19T03:57:22;5.80;99.90
46091;DHT22;31826;53.572;10.170;2023-11-19T03:59:48;5.80;99.90
46091;DHT22;31826;53.572;10.170;2023-11-19T04:02:14;5.80;99.90
46091;DHT22;31826;53.572;10.170;2023-11-19T04:04:40;5.70;99.90
46091;DHT22;31826;53.572;10.170;2023-11-19T04:07:05;5.70;99.90
46091;DHT22;31826;53.572;10.170;2023-11-19T04:09:31;5.70;99.90
46091;DHT22;31826;53.572;10.170;2023-11-19T04:11:58;5.70;99.90
46091;DHT22;31826;53.572;10.170;2023-11-19T04:14:24;5.70;99.90
46091;DHT22;31826;53.572;10.170;2023-11-19T04:16:50;5.70;99.90
46091;DHT22;31826;53.572;10.170;2023-11-19T04:19:17;5.70;99.90
46091;DHT22;31826;53.572;10.170;2023-11-19T04:21:43;5.80;99.90
46091;DHT22;31826;53.572;10.170;2023-11-19T04:24:09;5.80;99.90
46091;DHT22;31826;53.572;10.170;2023-11-19T04:26:42;5.80;99.90
46091;DHT22;31826;53.572;10.170;2023-11-19T04:29:12;5.80;99.90
46091;DHT22;31826;53.572;10.170;2023-11-19T04:31:38;5.80;99.90
46091;DHT22;31826;53.572;10.170;2023-11-19T04:34:05;5.90;99.90
46091;DHT22;31826;53.572;10.170;2023-11-19T04:36:32;5.90;99.90
46091;DHT22;31826;53.572;10.170;2023-11-19T04:38:59;5.90;99.90
46091;DHT22;31826;53.572;10.170;2023-11-19T04:41:25;5.90;99.90
46091;DHT22;31826;53.572;10.170;2023-11-19T04:43:53;5.90;99.90
46091;DHT22;31826;53.572;10.170;2023-11-19T04:46:19;5.90;99.90
46091;DHT22;31826;53.572;10.170;2023-11-19T04:48:45;5.90;99.90
46091;DHT22;31826;53.572;10.170;2023-11-19T04:51:10;6.00;99.90
46091;DHT22;31826;53.572;10.170;2023-11-19T04:53:36;6.00;99.90
46091;DHT22;31826;53.572;10.170;2023-11-19T04:56:11;6.00;99.90
46091;DHT22;31826;53.572;10.170;2023-11-19T04:58:36;6.10;99.90
46091;DHT22;31826;53.572;10.170;2023-11-19T05:01:03;6.10;99.90
46091;DHT22;31826;53.572;10.170;2023-11-19T05:03:32;6.10;99.90
46091;DHT22;31826;53.572;10.170;2023-11-19T05:05:58;6.10;99.90
46091;DHT22;31826;53.572;10.170;2023-11-19T05:08:24;6.10;99.90
46091;DHT22;31826;53.572;10.170;2023-11-19T05:10:50;6.20;99.90
46091;DHT22;31826;53.572;10.170;2023-11-19T05:13:16;6.20;99.90
46091;DHT22;31826;53.572;10.170;2023-11-19T05:15:42;6.30;99.90
46091;DHT22;31826;53.572;10.170;2023-11-19T05:18:08;6.30;99.90
46091;DHT22;31826;53.572;10.170;2023-11-19T05:20:34;6.30;99.90
46091;DHT22;31826;53.572;10.170;2023-11-19T05:23:00;6.40;99.90
46091;DHT22;31826;53.572;10.170;2023-11-19T05:25:26;6.40;99.90
46091;DHT22;31826;53.572;10.170;2023-11-19T05:27:53;6.40;99.90
46091;DHT22;31826;53.572;10.170;2023-11-19T05:30:18;6.50;99.90
46091;DHT22;31826;53.572;10.170;2023-11-19T05:32:44;6.50;99.90
46091;DHT22;31826;53.572;10.170;2023-11-19T05:35:11;6.60;99.90
46091;DHT22;31826;53.572;10.170;2023-11-19T05:37:36;6.60;99.90
46091;DHT22;31826;53.572;10.170;2023-11-19T05:40:02;6.70;99.90
46091;DHT22;31826;53.572;10.170;2023-11-19T05:42:39;6.70;99.90
46091;DHT22;31826;53.572;10.170;2023-11-19T05:45:05;6.80;99.90
46091;DHT22;31826;53.572;10.170;2023-11-19T05:47:31;6.80;99.90
46091;DHT22;31826;53.572;10.170;2023-11-19T05:49:56;6.90;99.90
46091;DHT22;31826;53.572;10.170;2023-11-19T05:52:22;6.90;99.90
46091;DHT22;31826;53.572;10.170;2023-11-19T05:54:48;6.90;99.90
46091;DHT22;31826;53.572;10.170;2023-11-19T05:57:17;7.00;99.90
46091;DHT22;31826;53.572;10.170;2023-11-19T05:59:48;7.20;99.90
46091;DHT22;31826;53.572;10.170;2023-11-19T06:02:14;7.20;99.90
46091;DHT22;31826;53.572;10.170;2023-11-19T06:04:39;7.20;99.90
46091;DHT22;31826;53.572;10.170;2023-11-19T06:07:05;7.20;99.90
46091;DHT22;31826;53.572;10.170;2023-11-19T06:09:31;7.30;99.90
46091;DHT22;31826;53.572;10.170;2023-11-19T06:11:59;7.40;99.90
46091;DHT22;31826;53.572;10.170;2023-11-19T06:14:27;7.50;99.90
46091;DHT22;31826;53.572;10.170;2023-11-19T06:16:53;7.40;99.90
46091;DHT22;31826;53.572;10.170;2023-11-19T06:19:18;7.40;99.90
46091;DHT22;31826;53.572;10.170;2023-11-19T06:21:44;7.40;99.90
46091;DHT22;31826;53.572;10.170;2023-11-19T06:24:10;7.50;99.90
46091;DHT22;31826;53.572;10.170;2023-11-19T06:26:35;7.50;99.90
46091;DHT22;31826;53.572;10.170;2023-11-19T06:29:01;7.60;99.90
46091;DHT22;31826;53.572;10.170;2023-11-19T06:31:27;7.70;99.90
46091;DHT22;31826;53.572;10.170;2023-11-19T06:33:53;7.70;99.90
46091;DHT22;31826;53.572;10.170;2023-11-19T06:36:18;7.90;99.90
46091;DHT22;31826;53.572;10.170;2023-11-19T06:38:44;8.00;99.90
46091;DHT22;31826;53.572;10.170;2023-11-19T06:41:10;8.10;99.90
46091;DHT22;31826;53.572;10.170;2023-11-19T06:43:37;8.30;99.90
46091;DHT22;31826;53.572;10.170;2023-11-19T06:46:03;8.50;99.90
46091;DHT22;31826;53.572;10.170;2023-11-19T06:48:32;8.50;99.90
46091;DHT22;31826;53.572;10.170;2023-11-19T06:50:57;8.60;99.90
46091;DHT22;31826;53.572;10.170;2023-11-19T06:53:23;8.70;99.90
46091;DHT22;31826;53.572;10.170;2023-11-19T06:55:49;8.80;99.90
46091;DHT22;31826;53.572;10.170;2023-11-19T06:58:15;9.00;99.90
46091;DHT22;31826;53.572;10.170;2023-11-19T07:00:41;9.10;99.90
46091;DHT22;31826;53.572;10.170;2023-11-19T07:03:06;9.10;99.90
46091;DHT22;31826;53.572;10.170;2023-11-19T07:05:36;9.10;99.90
46091;DHT22;31826;53.572;10.170;2023-11-19T07:08:05;9.10;99.90
46091;DHT22;31826;53.572;10.170;2023-11-19T07:10:32;9.20;99.90
46091;DHT22;31826;53.572;10.170;2023-11-19T07:12:59;9.40;99.90
46091;DHT22;31826;53.572;10.170;2023-11-19T07:15:24;9.60;99.90
46091;DHT22;31826;53.572;10.170;2023-11-19T07:17:50;9.60;99.90
46091;DHT22;31826;53.572;10.170;2023-11-19T07:20:16;9.70;99.90
46091;DHT22;31826;53.572;10.170;2023-11-19T07:22:44;9.70;99.90
46091;DHT22;31826;53.572;10.170;2023-11-19T07:25:13;9.90;99.90
46091;DHT22;31826;53.572;10.170;2023-11-19T07:27:38;9.90;99.90
46091;DHT22;31826;53.572;10.170;2023-11-19T07:30:05;9.90;99.90
46091;DHT22;31826;53.572;10.170;2023-11-19T07:32:33;9.90;99.90
46091;DHT22;31826;53.572;10.170;2023-11-19T07:34:58;9.90;99.90
46091;DHT22;31826;53.572;10.170;2023-11-19T07:37:25;9.90;99.90
46091;DHT22;31826;53.572;10.170;2023-11-19T07:39:50;9.90;99.90
46091;DHT22;31826;53.572;10.170;2023-11-19T07:42:16;10.00;99.90
46091;DHT22;31826;53.572;10.170;2023-11-19T07:44:43;9.90;99.90
46091;DHT22;31826;53.572;10.170;2023-11-19T07:47:09;10.00;99.90
46091;DHT22;31826;53.572;10.170;2023-11-19T07:49:35;10.00;99.90
46091;DHT22;31826;53.572;10.170;2023-11-19T07:52:01;10.00;99.90
46091;DHT22;31826;53.572;10.170;2023-11-19T07:54:28;10.00;99.90
46091;DHT22;31826;53.572;10.170;2023-11-19T07:56:54;10.00;99.90
46091;DHT22;31826;53.572;10.170;2023-11-19T07:59:21;10.10;99.90
46091;DHT22;31826;53.572;10.170;2023-11-19T08:01:47;10.10;99.90
46091;DHT22;31826;53.572;10.170;2023-11-19T08:04:13;10.10;99.90
46091;DHT22;31826;53.572;10.170;2023-11-19T08:06:39;10.10;99.90
46091;DHT22;31826;53.572;10.170;2023-11-19T08:09:05;10.10;99.90
46091;DHT22;31826;53.572;10.170;2023-11-19T08:11:32;10.10;99.90
46091;DHT22;31826;53.572;10.170;2023-11-19T08:13:57;10.10;99.90
46091;DHT22;31826;53.572;10.170;2023-11-19T08:16:23;10.20;99.90
46091;DHT22;31826;53.572;10.170;2023-11-19T08:18:49;10.30;99.90
46091;DHT22;31826;53.572;10.170;2023-11-19T08:21:14;10.30;99.90
46091;DHT22;31826;53.572;10.170;2023-11-19T08:23:40;10.30;99.90
46091;DHT22;31826;53.572;10.170;2023-11-19T08:26:06;10.30;99.90
46091;DHT22;31826;53.572;10.170;2023-11-19T08:28:32;10.30;99.90
46091;DHT22;31826;53.572;10.170;2023-11-19T08:30:59;10.30;99.90
46091;DHT22;31826;53.572;10.170;2023-11-19T08:33:26;10.30;99.90
46091;DHT22;31826;53.572;10.170;2023-11-19T08:35:52;10.30;99.90
46091;DHT22;31826;53.572;10.170;2023-11-19T08:38:17;10.30;99.90
46091;DHT22;31826;53.572;10.170;2023-11-19T08:40:43;10.30;99.90
46091;DHT22;31826;53.572;10.170;2023-11-19T08:43:08;10.30;99.90
46091;DHT22;31826;53.572;10.170;2023-11-19T08:45:34;10.40;99.90
46091;DHT22;31826;53.572;10.170;2023-11-19T08:48:00;10.30;99.90
46091;DHT22;31826;53.572;10.170;2023-11-19T08:50:25;10.40;99.90
46091;DHT22;31826;53.572;10.170;2023-11-19T08:52:51;10.40;99.90
46091;DHT22;31826;53.572;10.170;2023-11-19T08:55:17;10.40;99.90
46091;DHT22;31826;53.572;10.170;2023-11-19T08:57:42;10.40;99.90
46091;DHT22;31826;53.572;10.170;2023-11-19T09:00:08;10.40;99.90
46091;DHT22;31826;53.572;10.170;2023-11-19T09:02:37;10.40;99.90
46091;DHT22;31826;53.572;10.170;2023-11-19T09:05:04;10.50;99.90
46091;DHT22;31826;53.572;10.170;2023-11-19T09:07:29;10.50;99.90
46091;DHT22;31826;53.572;10.170;2023-11-19T09:09:55;10.40;99.90
46091;DHT22;31826;53.572;10.170;2023-11-19T09:12:21;10.50;99.90
46091;DHT22;31826;53.572;10.170;2023-11-19T09:14:46;10.50;99.90
46091;DHT22;31826;53.572;10.170;2023-11-19T09:17:12;10.50;99.90
46091;DHT22;31826;53.572;10.170;2023-11-19T09:19:38;10.50;99.90
46091;DHT22;31826;53.572;10.170;2023-11-19T09:22:04;10.60;99.90
46091;DHT22;31826;53.572;10.170;2023-11-19T09:24:29;10.60;99.90
46091;DHT22;31826;53.572;10.170;2023-11-19T09:26:55;10.60;99.90
46091;DHT22;31826;53.572;10.170;2023-11-19T09:29:22;10.60;99.90
46091;DHT22;31826;53.572;10.170;2023-11-19T09:31:47;10.60;99.90
46091;DHT22;31826;53.572;10.170;2023-11-19T09:34:13;10.70;99.90
46091;DHT22;31826;53.572;10.170;2023-11-19T09:36:39;10.70;99.90
46091;DHT22;31826;53.572;10.170;2023-11-19T09:39:10;10.70;99.90
46091;DHT22;31826;53.572;10.170;2023-11-19T09:41:35;10.70;99.90
46091;DHT22;31826;53.572;10.170;2023-11-19T09:44:01;10.70;99.90
46091;DHT22;31826;53.572;10.170;2023-11-19T09:46:28;10.70;99.90
46091;DHT22;31826;53.572;10.170;2023-11-19T09:48:56;10.80;99.90
46091;DHT22;31826;53.572;10.170;2023-11-19T09:51:23;10.70;99.90
46091;DHT22;31826;53.572;10.170;2023-11-19T09:53:49;10.80;99.90
46091;DHT22;31826;53.572;10.170;2023-11-19T09:56:15;10.90;99.90
46091;DHT22;31826;53.572;10.170;2023-11-19T09:58:42;10.90;99.90
46091;DHT22;31826;53.572;10.170;2023-11-19T10:01:08;11.00;99.90
46091;DHT22;31826;53.572;10.170;2023-11-19T10:03:39;11.00;99.90
46091;DHT22;31826;53.572;10.170;2023-11-19T10:06:08;11.00;99.90
46091;DHT22;31826;53.572;10.170;2023-11-19T10:08:37;11.10;99.90
46091;DHT22;31826;53.572;10.170;2023-11-19T10:11:08;11.20;99.90
46091;DHT22;31826;53.572;10.170;2023-11-19T10:13:37;11.40;99.90
46091;DHT22;31826;53.572;10.170;2023-11-19T10:16:14;11.60;99.90
46091;DHT22;31826;53.572;10.170;2023-11-19T10:18:46;11.50;99.90
46091;DHT22;31826;53.572;10.170;2023-11-19T10:21:13;11.50;99.90
46091;DHT22;31826;53.572;10.170;2023-11-19T10:23:57;11.40;99.90
46091;DHT22;31826;53.572;10.170;2023-11-19T10:26:26;11.30;99.90
46091;DHT22;31826;53.572;10.170;2023-11-19T10:28:52;11.20;99.90
46091;DHT22;31826;53.572;10.170;2023-11-19T10:31:19;11.10;99.90
46091;DHT22;31826;53.572;10.170;2023-11-19T10:33:48;11.00;99.90
46091;DHT22;31826;53.572;10.170;2023-11-19T10:36:14;10.90;99.90
46091;DHT22;31826;53.572;10.170;2023-11-19T10:38:40;10.90;99.90
46091;DHT22;31826;53.572;10.170;2023-11-19T10:41:06;10.90;99.90
46091;DHT22;31826;53.572;10.170;2023-11-19T10:43:43;10.90;99.90
46091;DHT22;31826;53.572;10.170;2023-11-19T10:46:13;10.90;99.90
46091;DHT22;31826;53.572;10.170;2023-11-19T10:48:40;10.90;99.90
46091;DHT22;31826;53.572;10.170;2023-11-19T10:51:06;10.90;99.90
46091;DHT22;31826;53.572;10.170;2023-11-19T10:53:42;10.90;99.90
46091;DHT22;31826;53.572;10.170;2023-11-19T10:56:13;10.80;99.90
46091;DHT22;31826;53.572;10.170;2023-11-19T10:58:44;10.90;99.90
46091;DHT22;31826;53.572;10.170;2023-11-19T11:01:18;10.80;99.90
46091;DHT22;31826;53.572;10.170;2023-11-19T11:03:46;10.80;99.90
46091;DHT22;31826;53.572;10.170;2023-11-19T11:06:13;10.90;99.90
46091;DHT22;31826;53.572;10.170;2023-11-19T11:08:39;10.90;99.90
46091;DHT22;31826;53.572;10.170;2023-11-19T11:11:06;10.90;99.90
46091;DHT22;31826;53.572;10.170;2023-11-19T11:13:33;11.00;99.90
46091;DHT22;31826;53.572;10.170;2023-11-19T11:16:00;11.00;99.90
46091;DHT22;31826;53.572;10.170;2023-11-19T11:18:26;11.10;99.90
46091;DHT22;31826;53.572;10.170;2023-11-19T11:21:08;11.10;99.90
46091;DHT22;31826;53.572;10.170;2023-11-19T11:38:02;11.00;99.90
46091;DHT22;31826;53.572;10.170;2023-11-19T11:40:28;11.00;99.90
46091;DHT22;31826;53.572;10.170;2023-11-19T11:42:55;11.00;99.90
46091;DHT22;31826;53.572;10.170;2023-11-19T11:45:36;11.00;99.90
46091;DHT22;31826;53.572;10.170;2023-11-19T11:48:15;11.00;99.90
46091;DHT22;31826;53.572;10.170;2023-11-19T11:50:52;11.00;99.90
46091;DHT22;31826;53.572;10.170;2023-11-19T11:53:22;10.90;99.90
46091;DHT22;31826;53.572;10.170;2023-11-19T11:55:53;10.90;99.90
46091;DHT22;31826;53.572;10.170;2023-11-19T11:58:31;10.90;99.90
46091;DHT22;31826;53.572;10.170;2023-11-19T12:00:58;10.90;99.90
46091;DHT22;31826;53.572;10.170;2023-11-19T12:03:27;10.90;99.90
46091;DHT22;31826;53.572;10.170;2023-11-19T12:05:53;10.90;99.90
46091;DHT22;31826;53.572;10.170;2023-11-19T12:08:20;11.00;99.90
46091;DHT22;31826;53.572;10.170;2023-11-19T12:10:52;10.90;99.90
46091;DHT22;31826;53.572;10.170;2023-11-19T12:13:19;11.00;99.90
46091;DHT22;31826;53.572;10.170;2023-11-19T12:18:31;11.00;99.90
46091;DHT22;31826;53.572;10.170;2023-11-19T12:20:58;11.00;99.90
46091;DHT22;31826;53.572;10.170;2023-11-19T12:23:31;11.00;99.90
46091;DHT22;31826;53.572;10.170;2023-11-19T12:25:57;11.00;99.90
46091;DHT22;31826;53.572;10.170;2023-11-19T12:28:24;11.10;99.90
46091;DHT22;31826;53.572;10.170;2023-11-19T12:30:52;11.10;99.90
46091;DHT22;31826;53.572;10.170;2023-11-19T12:33:19;11.10;99.90
46091;DHT22;31826;53.572;10.170;2023-11-19T12:35:46;11.10;99.90
46091;DHT22;31826;53.572;10.170;2023-11-19T12:38:23;11.10;99.90
46091;DHT22;31826;53.572;10.170;2023-11-19T12:41:05;11.20;99.90
46091;DHT22;31826;53.572;10.170;2023-11-19T12:43:31;11.10;99.90
46091;DHT22;31826;53.572;10.170;2023-11-19T12:45:57;11.10;99.90
46091;DHT22;31826;53.572;10.170;2023-11-19T12:48:23;11.10;99.90
46091;DHT22;31826;53.572;10.170;2023-11-19T12:50:53;11.10;99.90
46091;DHT22;31826;53.572;10.170;2023-11-19T12:53:20;11.00;99.90
46091;DHT22;31826;53.572;10.170;2023-11-19T12:55:46;11.00;99.90
46091;DHT22;31826;53.572;10.170;2023-11-19T12:58:28;11.00;99.90
46091;DHT22;31826;53.572;10.170;2023-11-19T13:01:05;11.00;99.90
46091;DHT22;31826;53.572;10.170;2023-11-19T13:03:35;11.00;99.90
46091;DHT22;31826;53.572;10.170;2023-11-19T13:06:05;11.00;99.90
46091;DHT22;31826;53.572;10.170;2023-11-19T13:08:40;11.00;99.90
46091;DHT22;31826;53.572;10.170;2023-11-19T13:11:07;11.00;99.90
46091;DHT22;31826;53.572;10.170;2023-11-19T13:16:18;11.00;99.90
46091;DHT22;31826;53.572;10.170;2023-11-19T13:18:44;11.10;99.90
46091;DHT22;31826;53.572;10.170;2023-11-19T13:21:10;11.20;99.90
46091;DHT22;31826;53.572;10.170;2023-11-19T13:23:36;11.20;99.90
46091;DHT22;31826;53.572;10.170;2023-11-19T13:26:01;11.20;99.90
46091;DHT22;31826;53.572;10.170;2023-11-19T13:28:29;11.20;99.90
46091;DHT22;31826;53.572;10.170;2023-11-19T13:30:55;11.20;99.90
46091;DHT22;31826;53.572;10.170;2023-11-19T13:33:20;11.20;99.90
46091;DHT22;31826;53.572;10.170;2023-11-19T13:35:46;11.10;99.90
46091;DHT22;31826;53.572;10.170;2023-11-19T13:38:12;11.20;99.90
46091;DHT22;31826;53.572;10.170;2023-11-19T13:40:38;11.10;99.90
46091;DHT22;31826;53.572;10.170;2023-11-19T13:43:04;11.10;99.90
46091;DHT22;31826;53.572;10.170;2023-11-19T13:45:30;11.10;99.90
46091;DHT22;31826;53.572;10.170;2023-11-19T13:47:56;11.10;99.90
46091;DHT22;31826;53.572;10.170;2023-11-19T13:50:21;11.10;99.90
46091;DHT22;31826;53.572;10.170;2023-11-19T13:52:48;11.10;99.90
46091;DHT22;31826;53.572;10.170;2023-11-19T13:55:14;11.10;99.90
46091;DHT22;31826;53.572;10.170;2023-11-19T13:57:41;11.00;99.90
46091;DHT22;31826;53.572;10.170;2023-11-19T14:00:09;11.00;99.90
46091;DHT22;31826;53.572;10.170;2023-11-19T14:02:45;11.10;99.90
46091;DHT22;31826;53.572;10.170;2023-11-19T14:05:12;11.10;99.90
46091;DHT22;31826;53.572;10.170;2023-11-19T14:07:39;11.10;99.90
46091;DHT22;31826;53.572;10.170;2023-11-19T14:10:06;11.10;99.90
46091;DHT22;31826;53.572;10.170;2023-11-19T14:12:32;11.10;99.90
46091;DHT22;31826;53.572;10.170;2023-11-19T14:14:58;11.10;99.90
46091;DHT22;31826;53.572;10.170;2023-11-19T14:17:26;11.10;99.90
46091;DHT22;31826;53.572;10.170;2023-11-19T14:19:52;11.10;99.90
46091;DHT22;31826;53.572;10.170;2023-11-19T14:22:18;11.10;99.90
46091;DHT22;31826;53.572;10.170;2023-11-19T14:24:44;11.10;99.90
46091;DHT22;31826;53.572;10.170;2023-11-19T14:27:10;11.10;99.90
46091;DHT22;31826;53.572;10.170;2023-11-19T14:29:36;11.20;99.90
46091;DHT22;31826;53.572;10.170;2023-11-19T14:32:03;11.10;99.90
46091;DHT22;31826;53.572;10.170;2023-11-19T14:34:30;11.20;99.90
46091;DHT22;31826;53.572;10.170;2023-11-19T14:36:56;11.10;99.90
46091;DHT22;31826;53.572;10.170;2023-11-19T14:39:22;11.10;99.90
46091;DHT22;31826;53.572;10.170;2023-11-19T14:41:47;11.10;99.90
46091;DHT22;31826;53.572;10.170;2023-11-19T14:44:15;11.00;99.90
46091;DHT22;31826;53.572;10.170;2023-11-19T14:46:40;11.00;99.90
46091;DHT22;31826;53.572;10.170;2023-11-19T14:49:06;10.90;99.90
46091;DHT22;31826;53.572;10.170;2023-11-19T14:51:38;10.80;99.90
46091;DHT22;31826;53.572;10.170;2023-11-19T14:54:04;10.80;99.90
46091;DHT22;31826;53.572;10.170;2023-11-19T14:56:30;10.70;99.90
46091;DHT22;31826;53.572;10.170;2023-11-19T14:58:56;10.70;99.90
46091;DHT22;31826;53.572;10.170;2023-11-19T15:01:22;10.70;99.90
46091;DHT22;31826;53.572;10.170;2023-11-19T15:03:47;10.70;99.90
46091;DHT22;31826;53.572;10.170;2023-11-19T15:06:13;10.70;99.90
46091;DHT22;31826;53.572;10.170;2023-11-19T15:08:39;10.60;99.90
46091;DHT22;31826;53.572;10.170;2023-11-19T15:11:05;10.60;99.90
46091;DHT22;31826;53.572;10.170;2023-11-19T15:13:32;10.60;99.90
46091;DHT22;31826;53.572;10.170;2023-11-19T15:15:58;10.50;99.90
46091;DHT22;31826;53.572;10.170;2023-11-19T15:18:24;10.50;99.90
46091;DHT22;31826;53.572;10.170;2023-11-19T15:20:50;10.40;99.90
46091;DHT22;31826;53.572;10.170;2023-11-19T15:23:16;10.40;99.90
46091;DHT22;31826;53.572;10.170;2023-11-19T15:25:42;10.30;99.90
46091;DHT22;31826;53.572;10.170;2023-11-19T15:28:08;10.30;99.90
46091;DHT22;31826;53.572;10.170;2023-11-19T15:30:35;10.20;99.90
46091;DHT22;31826;53.572;10.170;2023-11-19T15:33:01;10.10;99.90
46091;DHT22;31826;53.572;10.170;2023-11-19T15:35:26;10.00;99.90
46091;DHT22;31826;53.572;10.170;2023-11-19T15:37:52;9.90;99.90
46091;DHT22;31826;53.572;10.170;2023-11-19T15:40:18;9.80;99.90
46091;DHT22;31826;53.572;10.170;2023-11-19T15:42:43;9.80;99.90